Terminal Aerodrome Forecast
Issued by NWS Rapid City, SD

Home | Current Version | Previous Version | Graphics & Text | Print | Product List | Glossary On
Versions: 1 2 3 4 5 6 7 8 9 10 11 12 13 14 15 16 17
000
FTUS43 KUNR 240210 AAA
TAFRAP
TAF AMD
KRAP 240210Z 2402/2424 31006KT P6SM OVC150
      TEMPO 2404/2408 P6SM -SHRA BKN050
     FM241200 32009KT P6SM SCT050
     FM242000 30008KT P6SM BKN200 PROB30 2420/2424 P6SM TS BKN050CB=

USA.gov is the U.S. government's official web portal to all federal, state and local government web resources and services.